Time;durP1;ratioP1;P1;durP2;ratioP2;P2;SDS_P1;SDS_P2;PMS_P1;PMS_P2;Temp;Humidity;BMP_temperature;BMP_pressure;BME280_temperature;BME280_humidity;BME280_pressure;Samples;Min_cycle;Max_cycle;Signal;HPM_P1;HPM_P2
2021/11/18 00:00:40;;;;;;;8.33;7.73;;;7.10;65.30;;;;;;4954457;28;20455;-87
2021/11/18 00:03:08;;;;;;;8.67;7.97;;;7.20;65.70;;;;;;4954217;28;20497;-87
2021/11/18 00:05:33;;;;;;;7.73;7.07;;;7.10;65.80;;;;;;4955239;29;20423;-87
2021/11/18 00:08:00;;;;;;;8.33;7.53;;;7.10;66.10;;;;;;4955677;28;20433;-86
2021/11/18 00:10:32;;;;;;;8.37;7.57;;;7.20;66.40;;;;;;4956703;28;20198;-86
2021/11/18 00:12:59;;;;;;;8.63;7.83;;;7.10;65.20;;;;;;4954813;28;20426;-87
2021/11/18 00:15:27;;;;;;;7.17;6.63;;;7.20;65.50;;;;;;4955511;28;20568;-88
2021/11/18 00:17:58;;;;;;;8.70;7.83;;;7.10;65.80;;;;;;4956699;28;20466;-87
2021/11/18 00:20:31;;;;;;;8.07;7.37;;;7.20;66.10;;;;;;4955486;28;20415;-86
2021/11/18 00:22:57;;;;;;;9.23;8.50;;;7.20;65.90;;;;;;4955132;28;20439;-87
2021/11/18 00:25:24;;;;;;;8.43;7.57;;;7.20;66.10;;;;;;4954521;28;20430;-86
2021/11/18 00:27:51;;;;;;;8.30;7.60;;;7.20;65.90;;;;;;4955614;29;20423;-88
2021/11/18 00:30:17;;;;;;;8.63;7.93;;;7.20;65.50;;;;;;4955559;28;20978;-83
2021/11/18 00:32:44;;;;;;;7.30;6.70;;;7.20;64.60;;;;;;4959753;28;20474;-82
2021/11/18 00:35:14;;;;;;;7.60;7.03;;;7.20;65.10;;;;;;4957476;28;20478;-84
2021/11/18 00:37:39;;;;;;;8.50;7.60;;;7.20;65.20;;;;;;4953251;28;20411;-85
2021/11/18 00:40:06;;;;;;;7.33;6.63;;;7.20;65.00;;;;;;4952191;28;20783;-83
2021/11/18 00:42:32;;;;;;;8.50;7.60;;;7.20;65.40;;;;;;4952579;28;20176;-83
2021/11/18 00:44:59;;;;;;;7.60;6.90;;;7.20;64.40;;;;;;4952448;28;20446;-84
2021/11/18 00:47:26;;;;;;;7.03;6.43;;;7.20;64.60;;;;;;4951413;28;20789;-83
2021/11/18 00:49:52;;;;;;;8.67;7.97;;;7.20;64.30;;;;;;4953915;28;20916;-82
2021/11/18 00:52:19;;;;;;;8.43;7.73;;;7.20;64.60;;;;;;4953017;28;20481;-83
2021/11/18 00:54:45;;;;;;;7.97;7.37;;;7.20;65.10;;;;;;4951865;28;20418;-84
2021/11/18 00:57:11;;;;;;;7.87;7.07;;;7.10;65.40;;;;;;4952458;28;20541;-84
2021/11/18 00:59:37;;;;;;;7.13;6.43;;;7.20;66.20;;;;;;4952080;28;20502;-84
2021/11/18 01:02:03;;;;;;;7.27;6.57;;;7.20;66.30;;;;;;4952234;28;20203;-84
2021/11/18 01:04:30;;;;;;;9.03;7.40;;;7.20;66.20;;;;;;4952835;28;20191;-83
2021/11/18 01:06:56;;;;;;;7.53;6.70;;;7.20;65.50;;;;;;4951907;28;20433;-84
2021/11/18 01:09:22;;;;;;;6.63;6.13;;;7.20;65.30;;;;;;4952543;28;20496;-83
2021/11/18 01:11:49;;;;;;;7.60;6.80;;;7.20;65.20;;;;;;4951578;28;20422;-83
2021/11/18 01:14:17;;;;;;;7.90;6.60;;;7.20;65.40;;;;;;4951930;28;20518;-83
2021/11/18 01:16:46;;;;;;;8.07;7.30;;;7.20;64.60;;;;;;4951864;28;20454;-84
2021/11/18 01:19:12;;;;;;;7.53;6.83;;;7.20;65.00;;;;;;4951776;28;20407;-84
2021/11/18 01:21:40;;;;;;;7.70;7.10;;;7.20;64.90;;;;;;4951416;28;20894;-83
2021/11/18 01:24:06;;;;;;;7.03;6.40;;;7.20;65.30;;;;;;4951273;28;20419;-84
2021/11/18 01:26:32;;;;;;;6.90;6.30;;;7.20;65.60;;;;;;4950426;28;20423;-84
2021/11/18 01:29:01;;;;;;;8.47;7.50;;;7.20;67.90;;;;;;4950591;28;20995;-83
2021/11/18 01:31:27;;;;;;;7.10;6.50;;;7.20;67.40;;;;;;4950930;28;20419;-83
2021/11/18 01:33:53;;;;;;;6.57;5.97;;;7.20;68.20;;;;;;4950932;28;20423;-82
2021/11/18 01:36:19;;;;;;;9.23;7.57;;;7.10;68.60;;;;;;4951663;28;20505;-84
2021/11/18 01:38:45;;;;;;;7.53;6.83;;;7.10;69.00;;;;;;4950187;28;20419;-83
2021/11/18 01:41:18;;;;;;;9.07;6.23;;;7.10;69.20;;;;;;4950909;28;20915;-84
2021/11/18 01:43:48;;;;;;;8.47;6.53;;;7.10;69.60;;;;;;4950841;28;20555;-83
2021/11/18 01:46:18;;;;;;;7.67;6.97;;;7.10;70.00;;;;;;4950892;29;20422;-84
2021/11/18 01:48:48;;;;;;;7.87;6.20;;;7.10;70.50;;;;;;4951881;28;20442;-82
2021/11/18 01:51:15;;;;;;;7.87;7.17;;;7.10;69.50;;;;;;4950410;29;20425;-84
2021/11/18 01:53:43;;;;;;;6.70;6.10;;;7.10;69.50;;;;;;4950437;29;20419;-84
2021/11/18 01:56:19;;;;;;;8.70;7.00;;;7.10;70.10;;;;;;4952303;28;20811;-84
2021/11/18 01:58:50;;;;;;;9.90;6.90;;;7.10;70.40;;;;;;4951820;28;20520;-84
2021/11/18 02:01:15;;;;;;;7.73;6.67;;;7.10;70.20;;;;;;4953883;28;20416;-83
2021/11/18 02:03:42;;;;;;;7.63;6.97;;;7.10;70.40;;;;;;4954702;28;20784;-85
2021/11/18 02:06:14;;;;;;;6.60;6.10;;;7.10;69.90;;;;;;4954085;28;20186;-83
2021/11/18 02:08:40;;;;;;;7.77;7.17;;;7.00;70.60;;;;;;4955576;28;20751;-83
2021/11/18 02:11:23;;;;;;;7.90;7.20;;;7.00;71.00;;;;;;4955001;28;20438;-83
2021/11/18 02:13:49;;;;;;;6.47;5.87;;;7.00;71.60;;;;;;4957205;28;20436;-84
2021/11/18 02:16:14;;;;;;;7.47;6.80;;;7.10;71.10;;;;;;4957367;28;20842;-83
2021/11/18 02:18:40;;;;;;;7.90;6.30;;;7.10;71.50;;;;;;4957169;28;20219;-84
2021/11/18 02:21:08;;;;;;;7.30;6.63;;;7.10;71.30;;;;;;4957052;28;20190;-84
2021/11/18 02:23:37;;;;;;;6.33;5.83;;;7.10;72.60;;;;;;4957336;28;20187;-84
2021/11/18 02:26:05;;;;;;;7.27;6.53;;;7.00;69.40;;;;;;4957168;28;20508;-83
2021/11/18 02:28:34;;;;;;;7.13;6.40;;;7.10;70.60;;;;;;4956893;28;20419;-83
2021/11/18 02:31:04;;;;;;;7.70;7.00;;;7.10;69.20;;;;;;4957237;28;20930;-83
2021/11/18 02:33:30;;;;;;;7.33;6.63;;;7.10;69.50;;;;;;4956896;29;20421;-85
2021/11/18 02:35:58;;;;;;;7.83;7.23;;;7.10;69.60;;;;;;4957107;28;20458;-84
2021/11/18 02:38:24;;;;;;;6.87;6.30;;;7.10;69.60;;;;;;4956870;28;20465;-83
2021/11/18 02:40:49;;;;;;;6.73;6.23;;;7.20;69.60;;;;;;4956967;28;20418;-84
2021/11/18 02:43:17;;;;;;;6.03;5.43;;;7.20;69.00;;;;;;4958832;28;20174;-87
2021/11/18 02:45:46;;;;;;;6.83;6.23;;;7.20;69.40;;;;;;4958456;28;20430;-88
2021/11/18 02:48:13;;;;;;;6.87;6.27;;;7.20;68.80;;;;;;4957223;28;20438;-87
2021/11/18 02:50:41;;;;;;;6.77;6.17;;;7.20;69.10;;;;;;4957509;28;20846;-86
2021/11/18 02:53:08;;;;;;;7.10;6.40;;;7.20;69.20;;;;;;4957248;28;20415;-88
2021/11/18 02:55:38;;;;;;;7.60;7.00;;;7.20;69.40;;;;;;4957037;28;20465;-88
2021/11/18 02:58:04;;;;;;;6.13;5.67;;;7.20;69.60;;;;;;4954007;28;20421;-88
2021/11/18 03:00:34;;;;;;;5.97;5.47;;;7.20;70.40;;;;;;4954169;28;20414;-87
2021/11/18 03:03:00;;;;;;;6.27;5.67;;;7.10;69.50;;;;;;4953699;28;20462;-87
2021/11/18 03:05:26;;;;;;;6.20;5.60;;;7.10;69.80;;;;;;4954250;28;20449;-88
2021/11/18 03:07:52;;;;;;;6.30;5.80;;;7.10;69.70;;;;;;4954565;28;20191;-88
2021/11/18 03:10:21;;;;;;;6.93;6.00;;;7.20;69.70;;;;;;4953027;28;20417;-87
2021/11/18 03:12:47;;;;;;;7.13;6.43;;;7.20;69.00;;;;;;4953588;28;20454;-87
2021/11/18 03:15:14;;;;;;;7.10;6.50;;;7.20;69.60;;;;;;4954924;28;20450;-86
2021/11/18 03:17:41;;;;;;;7.23;6.63;;;7.20;69.20;;;;;;4954179;28;20346;-88
2021/11/18 03:20:09;;;;;;;7.03;6.33;;;7.20;69.60;;;;;;4953994;28;20792;-88
2021/11/18 03:22:35;;;;;;;6.87;6.10;;;7.20;68.40;;;;;;4954215;29;20488;-88
2021/11/18 03:25:02;;;;;;;7.63;6.93;;;7.20;69.20;;;;;;4954901;28;20429;-87
2021/11/18 03:27:27;;;;;;;7.90;7.20;;;7.20;69.60;;;;;;4953920;29;20426;-88
2021/11/18 03:29:53;;;;;;;7.20;6.50;;;7.20;69.70;;;;;;4953691;28;20434;-86
2021/11/18 03:32:43;;;;;;;7.30;6.60;;;7.20;69.70;;;;;;4954507;28;20667;-87
2021/11/18 03:35:09;;;;;;;6.87;6.23;;;7.20;69.70;;;;;;4954283;28;20270;-87
2021/11/18 03:37:35;;;;;;;7.27;6.40;;;7.20;70.00;;;;;;4953730;28;20469;-87
2021/11/18 03:40:00;;;;;;;6.90;5.60;;;7.10;69.50;;;;;;4954577;28;21147;-87
2021/11/18 03:42:26;;;;;;;7.13;6.53;;;7.20;69.60;;;;;;4954418;28;20190;-86
2021/11/18 03:44:52;;;;;;;6.90;6.20;;;7.20;68.90;;;;;;4953745;28;20182;-87
2021/11/18 03:47:18;;;;;;;6.90;6.30;;;7.20;68.80;;;;;;4954206;28;20179;-87
2021/11/18 03:49:44;;;;;;;7.23;6.63;;;7.10;69.90;;;;;;4953573;28;20329;-88
2021/11/18 03:52:12;;;;;;;6.73;6.13;;;7.20;70.70;;;;;;4953365;28;20422;-87
2021/11/18 03:54:40;;;;;;;7.30;6.63;;;7.20;70.90;;;;;;4953948;28;20430;-87
2021/11/18 03:57:06;;;;;;;7.27;6.57;;;7.20;70.20;;;;;;4954388;29;20458;-88
2021/11/18 03:59:35;;;;;;;7.97;7.27;;;7.10;69.50;;;;;;4957371;28;20411;-88
2021/11/18 04:02:01;;;;;;;7.83;7.07;;;7.20;69.60;;;;;;4966007;28;20439;-88
2021/11/18 04:04:43;;;;;;;7.50;6.80;;;7.20;70.40;;;;;;4985009;28;20845;-87
2021/11/18 04:07:11;;;;;;;6.87;6.27;;;7.20;70.30;;;;;;4977839;28;20445;-88
2021/11/18 04:09:38;;;;;;;7.27;6.67;;;7.20;69.80;;;;;;4968464;28;20427;-86
2021/11/18 04:12:05;;;;;;;8.67;7.87;;;7.20;69.60;;;;;;4955544;29;20475;-88
2021/11/18 04:14:32;;;;;;;8.00;6.60;;;7.30;69.00;;;;;;4955997;29;20426;-88
2021/11/18 04:16:58;;;;;;;7.10;6.40;;;7.30;68.40;;;;;;4955565;29;20823;-86
2021/11/18 04:19:24;;;;;;;7.77;6.97;;;7.40;68.70;;;;;;4955962;29;20407;-87
2021/11/18 04:21:51;;;;;;;7.53;6.90;;;7.40;68.70;;;;;;4952209;28;20575;-88
2021/11/18 04:24:20;;;;;;;7.47;6.87;;;7.40;68.20;;;;;;4952635;29;20579;-87
2021/11/18 04:26:47;;;;;;;7.23;6.63;;;7.40;68.30;;;;;;4952399;29;20430;-87
2021/11/18 04:29:14;;;;;;;7.67;7.07;;;7.40;69.00;;;;;;4951922;29;20432;-88
2021/11/18 04:31:40;;;;;;;6.60;6.00;;;7.30;68.80;;;;;;4952705;29;20484;-87
2021/11/18 04:34:09;;;;;;;9.00;8.10;;;7.40;68.20;;;;;;4951739;29;20422;-87
2021/11/18 04:36:36;;;;;;;7.70;6.83;;;7.40;68.10;;;;;;4952253;29;20458;-86
2021/11/18 04:39:05;;;;;;;7.60;6.67;;;7.40;68.50;;;;;;4952317;29;20786;-88
2021/11/18 04:41:31;;;;;;;8.30;7.60;;;7.40;67.80;;;;;;4954423;28;21060;-86
2021/11/18 04:43:59;;;;;;;7.17;6.63;;;7.40;67.60;;;;;;4972326;28;20428;-86
2021/11/18 04:46:25;;;;;;;7.60;6.90;;;7.40;67.70;;;;;;4955391;28;20411;-84
2021/11/18 04:48:51;;;;;;;7.17;6.63;;;7.40;67.30;;;;;;4954770;29;20501;-86
2021/11/18 04:51:21;;;;;;;7.43;6.73;;;7.40;67.50;;;;;;4955083;29;20419;-85
2021/11/18 04:53:47;;;;;;;7.03;6.37;;;7.40;68.70;;;;;;4954999;29;20422;-84
2021/11/18 04:56:14;;;;;;;7.20;6.60;;;7.50;68.50;;;;;;4954039;29;20501;-82
2021/11/18 04:58:41;;;;;;;6.50;5.90;;;7.50;68.80;;;;;;4952366;29;20429;-81
2021/11/18 05:01:08;;;;;;;7.83;6.70;;;7.40;68.10;;;;;;4951897;29;20554;-80
2021/11/18 05:03:34;;;;;;;6.57;5.93;;;7.40;68.70;;;;;;4951142;29;20849;-87
2021/11/18 05:06:00;;;;;;;6.43;5.80;;;7.40;68.70;;;;;;4951227;29;20496;-85
2021/11/18 05:08:26;;;;;;;7.87;6.53;;;7.40;68.30;;;;;;4951070;29;20421;-85
2021/11/18 05:10:53;;;;;;;7.83;7.03;;;7.50;69.00;;;;;;4951414;28;20430;-85
2021/11/18 05:13:21;;;;;;;7.73;7.03;;;7.40;68.80;;;;;;4985901;28;20477;-87
2021/11/18 05:15:49;;;;;;;6.83;6.20;;;7.40;68.80;;;;;;4971864;28;20454;-86
2021/11/18 05:18:15;;;;;;;7.40;6.60;;;7.40;69.40;;;;;;4970919;28;20425;-86
2021/11/18 05:20:42;;;;;;;7.57;6.87;;;7.40;69.10;;;;;;4975853;28;20505;-84
2021/11/18 05:23:10;;;;;;;7.10;6.40;;;7.40;69.40;;;;;;4972943;28;20436;-85
2021/11/18 05:25:36;;;;;;;6.60;6.07;;;7.50;68.40;;;;;;4971779;28;20786;-84
2021/11/18 05:28:03;;;;;;;6.73;6.13;;;7.40;68.20;;;;;;4971950;28;20417;-86
2021/11/18 05:30:32;;;;;;;7.33;6.70;;;7.30;69.70;;;;;;4968405;28;20781;-85
2021/11/18 05:33:01;;;;;;;7.57;6.97;;;7.30;69.70;;;;;;4981362;28;20419;-85
2021/11/18 05:35:29;;;;;;;6.63;6.07;;;7.30;69.70;;;;;;4956172;28;21001;-85
2021/11/18 05:37:55;;;;;;;7.17;6.47;;;7.40;69.80;;;;;;4963402;28;20422;-85
2021/11/18 05:40:22;;;;;;;7.83;7.17;;;7.40;69.80;;;;;;4953607;29;20469;-83
2021/11/18 05:42:48;;;;;;;7.00;6.30;;;7.30;69.80;;;;;;4953431;28;20182;-82
2021/11/18 05:45:18;;;;;;;7.97;7.17;;;7.30;69.70;;;;;;4982223;28;20418;-82
2021/11/18 05:47:45;;;;;;;7.43;6.73;;;7.30;69.70;;;;;;4971938;28;20182;-81
2021/11/18 05:50:12;;;;;;;7.77;7.07;;;7.30;69.10;;;;;;4972072;28;20429;-82
2021/11/18 05:52:39;;;;;;;8.37;7.67;;;7.30;68.70;;;;;;4972456;28;20428;-81
2021/11/18 05:55:05;;;;;;;6.93;6.33;;;7.30;67.40;;;;;;4971954;28;20488;-82
2021/11/18 05:57:31;;;;;;;8.80;8.00;;;7.30;67.70;;;;;;4971881;28;20523;-82
2021/11/18 05:59:57;;;;;;;8.57;7.77;;;7.40;68.10;;;;;;4971865;28;20418;-82
2021/11/18 06:02:23;;;;;;;8.83;7.93;;;7.40;67.50;;;;;;4972776;28;20248;-83
2021/11/18 06:04:49;;;;;;;7.70;7.00;;;7.40;67.00;;;;;;4972574;28;20640;-81
2021/11/18 06:07:16;;;;;;;7.90;6.83;;;7.40;66.80;;;;;;4971938;28;20535;-81
2021/11/18 06:09:41;;;;;;;7.57;6.87;;;7.40;67.30;;;;;;4972404;28;20911;-82
2021/11/18 06:12:10;;;;;;;9.13;8.30;;;7.40;67.40;;;;;;4972113;28;20461;-82
2021/11/18 06:14:35;;;;;;;8.23;7.30;;;7.40;67.40;;;;;;4972477;28;20273;-83
2021/11/18 06:17:02;;;;;;;9.03;8.33;;;7.40;67.90;;;;;;4971854;28;20544;-81
2021/11/18 06:19:27;;;;;;;8.67;7.87;;;7.40;68.80;;;;;;4972343;28;20566;-81
2021/11/18 06:21:54;;;;;;;9.13;8.20;;;7.40;69.00;;;;;;4973477;28;20455;-82
2021/11/18 06:24:22;;;;;;;8.33;7.27;;;7.40;69.20;;;;;;4972052;28;20190;-81
2021/11/18 06:26:52;;;;;;;9.57;8.57;;;7.50;70.00;;;;;;4971828;28;20421;-81
2021/11/18 06:29:21;;;;;;;10.53;9.30;;;7.40;69.20;;;;;;4971392;28;20468;-82
2021/11/18 06:31:52;;;;;;;11.03;9.70;;;7.40;69.80;;;;;;4972387;28;20429;-82
2021/11/18 06:34:19;;;;;;;12.27;10.47;;;7.40;69.80;;;;;;4972225;28;20761;-82
2021/11/18 06:36:45;;;;;;;14.03;11.20;;;7.40;70.40;;;;;;4971903;28;20948;-83
2021/11/18 06:39:12;;;;;;;15.20;11.13;;;7.40;70.20;;;;;;4970003;28;20937;-81
2021/11/18 06:41:38;;;;;;;12.27;10.00;;;7.40;70.70;;;;;;4971728;28;20418;-81
2021/11/18 06:44:05;;;;;;;12.23;11.00;;;7.50;70.60;;;;;;4972110;28;20421;-81
2021/11/18 06:46:31;;;;;;;11.53;10.33;;;7.50;70.00;;;;;;4965622;28;20425;-81
2021/11/18 06:48:58;;;;;;;14.60;11.50;;;7.60;70.20;;;;;;4955587;29;20423;-82
2021/11/18 06:51:25;;;;;;;12.63;10.73;;;7.50;69.40;;;;;;4956167;29;20418;-81
2021/11/18 06:53:54;;;;;;;11.97;10.77;;;7.50;69.10;;;;;;4956164;29;20422;-83
2021/11/18 06:56:20;;;;;;;12.13;10.93;;;7.50;69.20;;;;;;4956057;29;20518;-82
2021/11/18 06:58:45;;;;;;;12.30;11.00;;;7.50;69.50;;;;;;4956389;29;20419;-83
2021/11/18 07:01:11;;;;;;;12.70;10.53;;;7.60;70.10;;;;;;4956339;29;20430;-82
2021/11/18 07:03:40;;;;;;;11.50;10.30;;;7.50;69.90;;;;;;4956022;29;20187;-83
2021/11/18 07:06:07;;;;;;;11.27;10.00;;;7.60;70.20;;;;;;4955892;29;20190;-82
2021/11/18 07:08:34;;;;;;;11.73;9.67;;;7.60;70.00;;;;;;4956254;29;20427;-82
2021/11/18 07:11:00;;;;;;;11.67;10.47;;;7.50;70.00;;;;;;4956502;29;20525;-81
2021/11/18 07:13:28;;;;;;;13.53;11.17;;;7.50;70.00;;;;;;4957517;29;20443;-82
2021/11/18 07:15:54;;;;;;;13.70;10.90;;;7.50;69.50;;;;;;4958268;29;20464;-81
2021/11/18 07:18:22;;;;;;;11.97;10.00;;;7.40;70.30;;;;;;4957930;29;20411;-82
2021/11/18 07:20:48;;;;;;;14.53;11.57;;;7.50;70.10;;;;;;4955664;29;20418;-81
2021/11/18 07:23:14;;;;;;;17.03;10.90;;;7.50;69.90;;;;;;4955654;29;20423;-81
2021/11/18 07:25:41;;;;;;;13.40;11.60;;;7.50;69.90;;;;;;4956054;29;20435;-81
2021/11/18 07:28:07;;;;;;;13.50;12.00;;;7.50;70.60;;;;;;4955723;29;20422;-81
2021/11/18 07:30:34;;;;;;;11.73;10.17;;;7.60;71.20;;;;;;4955291;29;20546;-81
2021/11/18 07:33:00;;;;;;;11.90;10.47;;;7.60;70.10;;;;;;4955327;29;20450;-80
2021/11/18 07:35:27;;;;;;;12.87;11.40;;;7.60;70.00;;;;;;4954645;29;20457;-81
2021/11/18 07:37:53;;;;;;;10.63;9.60;;;7.60;69.30;;;;;;4955201;29;20187;-81
2021/11/18 07:40:21;;;;;;;9.97;8.97;;;7.60;70.00;;;;;;4954837;29;20669;-81
2021/11/18 07:42:48;;;;;;;9.40;8.50;;;7.60;70.00;;;;;;4954923;29;20509;-81
2021/11/18 07:45:16;;;;;;;10.03;8.97;;;7.50;69.10;;;;;;4956037;28;20749;-81
2021/11/18 07:47:42;;;;;;;14.43;12.20;;;7.60;69.70;;;;;;4954683;29;20524;-81
2021/11/18 07:50:09;;;;;;;15.60;11.23;;;7.60;69.80;;;;;;4955188;29;20861;-81
2021/11/18 07:52:36;;;;;;;13.03;10.73;;;7.60;70.00;;;;;;4954624;29;20583;-81
2021/11/18 07:55:04;;;;;;;13.07;10.70;;;7.70;69.90;;;;;;4954617;29;20801;-82
2021/11/18 07:57:30;;;;;;;13.53;11.07;;;7.70;68.80;;;;;;4953487;28;20525;-82
2021/11/18 07:59:56;;;;;;;14.20;10.70;;;7.70;68.40;;;;;;4954671;29;20423;-82
2021/11/18 08:02:21;;;;;;;14.53;11.87;;;7.70;68.90;;;;;;4954453;29;20326;-82
2021/11/18 08:04:47;;;;;;;13.70;11.03;;;7.70;68.10;;;;;;4954862;29;20251;-84
2021/11/18 08:07:13;;;;;;;14.77;11.03;;;7.70;67.80;;;;;;4954545;29;20406;-81
2021/11/18 08:09:38;;;;;;;13.70;11.83;;;7.80;68.30;;;;;;4955352;29;20194;-87
2021/11/18 08:12:05;;;;;;;11.90;10.03;;;7.70;68.00;;;;;;4955724;29;20183;-87
2021/11/18 08:14:32;;;;;;;13.73;11.83;;;7.70;68.70;;;;;;4954984;29;20183;-89
2021/11/18 08:16:59;;;;;;;11.80;10.50;;;7.70;68.70;;;;;;4955448;29;20559;-89
2021/11/18 08:19:25;;;;;;;13.90;11.00;;;7.80;69.10;;;;;;4956619;29;20490;-88
2021/11/18 08:21:52;;;;;;;13.33;10.83;;;7.70;68.30;;;;;;4957046;29;20958;-89
2021/11/18 08:24:21;;;;;;;11.40;9.70;;;7.70;68.70;;;;;;4957604;29;20414;-89
2021/11/18 08:26:47;;;;;;;11.80;10.00;;;7.80;68.70;;;;;;4957262;29;20706;-83
2021/11/18 08:29:15;;;;;;;12.70;10.90;;;7.80;68.10;;;;;;4965099;28;20526;-82
2021/11/18 08:31:43;;;;;;;13.77;11.03;;;7.80;69.00;;;;;;4966685;28;20445;-82
2021/11/18 08:34:09;;;;;;;11.80;10.20;;;7.90;69.00;;;;;;4965374;28;20951;-83
2021/11/18 08:36:37;;;;;;;11.37;9.80;;;7.90;69.20;;;;;;4973845;28;20781;-81
2021/11/18 08:39:06;;;;;;;19.13;11.53;;;7.90;68.60;;;;;;4973355;28;20517;-84
2021/11/18 08:41:32;;;;;;;12.10;9.23;;;8.00;68.40;;;;;;4956812;28;20430;-83
2021/11/18 08:43:59;;;;;;;14.10;10.60;;;8.00;68.30;;;;;;4954302;29;20443;-82
2021/11/18 08:46:26;;;;;;;14.20;11.10;;;8.00;68.80;;;;;;4954338;28;20510;-83
2021/11/18 08:48:58;;;;;;;16.90;11.87;;;8.00;68.70;;;;;;4954180;29;20426;-83
2021/11/18 08:51:24;;;;;;;14.00;11.30;;;8.00;67.60;;;;;;4958164;28;20439;-82
2021/11/18 08:53:52;;;;;;;13.70;11.20;;;8.00;67.80;;;;;;4968988;28;20434;-81
2021/11/18 08:56:19;;;;;;;17.63;12.93;;;8.10;68.30;;;;;;4971386;28;20471;-88
2021/11/18 08:58:49;;;;;;;19.37;11.80;;;8.00;68.10;;;;;;4975741;28;21046;-89
2021/11/18 09:01:27;;;;;;;15.07;11.50;;;8.10;68.10;;;;;;4975334;28;20905;-89
2021/11/18 09:03:53;;;;;;;19.30;12.40;;;8.00;67.90;;;;;;4975441;28;20413;-88
2021/11/18 09:06:21;;;;;;;15.57;11.03;;;8.00;68.30;;;;;;4974935;28;20795;-88
2021/11/18 09:08:46;;;;;;;16.30;12.00;;;8.10;67.60;;;;;;4974977;28;20541;-89
2021/11/18 09:11:15;;;;;;;17.80;11.90;;;8.10;67.40;;;;;;4975096;28;20436;-89
2021/11/18 09:13:43;;;;;;;15.67;11.47;;;8.10;68.20;;;;;;4974185;28;20182;-89
2021/11/18 09:16:10;;;;;;;17.37;12.30;;;8.20;67.50;;;;;;4974238;28;20516;-89
2021/11/18 09:18:40;;;;;;;14.40;11.97;;;8.10;67.40;;;;;;4974040;28;20469;-90
2021/11/18 09:21:07;;;;;;;12.50;11.13;;;8.00;67.50;;;;;;4973501;28;20931;-89
2021/11/18 09:23:38;;;;;;;19.80;12.80;;;8.10;67.70;;;;;;4974018;28;20512;-89
2021/11/18 09:26:04;;;;;;;14.57;11.83;;;8.10;67.40;;;;;;4974283;28;20903;-88
2021/11/18 09:28:30;;;;;;;16.57;11.50;;;8.20;68.10;;;;;;4978349;28;20428;-89
2021/11/18 09:30:59;;;;;;;14.83;12.20;;;8.10;67.60;;;;;;4986906;28;20428;-88
2021/11/18 09:33:26;;;;;;;14.37;10.73;;;8.20;67.60;;;;;;4976177;28;20191;-88
2021/11/18 09:35:56;;;;;;;18.93;12.00;;;8.20;67.40;;;;;;4975524;28;20465;-88
2021/11/18 09:38:24;;;;;;;16.30;13.10;;;8.20;66.80;;;;;;4974374;28;20428;-88
2021/11/18 09:41:12;;;;;;;14.27;11.10;;;8.10;65.50;;;;;;4973906;28;20431;-89
2021/11/18 09:43:38;;;;;;;15.20;12.10;;;8.10;66.30;;;;;;4935601;28;20487;-85
2021/11/18 09:46:06;;;;;;;15.13;12.17;;;8.10;66.40;;;;;;4973440;28;20815;-88
2021/11/18 09:49:12;;;;;;;15.30;11.83;;;8.10;66.10;;;;;;4973440;28;20210;-87
2021/11/18 09:52:15;;;;;;;16.27;13.10;;;8.20;66.90;;;;;;4973956;28;20435;-88
2021/11/18 09:54:44;;;;;;;19.27;13.50;;;8.30;66.60;;;;;;4974908;28;20438;-88
2021/11/18 09:57:22;;;;;;;13.83;11.90;;;8.30;66.60;;;;;;4974038;28;20494;-88
2021/11/18 10:00:09;;;;;;;15.83;11.90;;;8.20;66.60;;;;;;4973719;28;20807;-88
2021/11/18 10:02:55;;;;;;;14.83;13.23;;;8.20;67.30;;;;;;4974826;28;20425;-88
2021/11/18 10:05:47;;;;;;;15.73;11.30;;;8.30;66.80;;;;;;4975177;28;20409;-88
2021/11/18 10:08:17;;;;;;;14.57;12.77;;;8.20;66.60;;;;;;4934301;28;20433;-88
2021/11/18 10:11:12;;;;;;;18.90;13.07;;;8.30;67.40;;;;;;4973471;28;20417;-89
2021/11/18 10:14:13;;;;;;;18.03;13.33;;;8.30;66.10;;;;;;4973906;28;20422;-87
2021/11/18 10:16:53;;;;;;;15.47;11.40;;;8.40;66.40;;;;;;4963921;28;20830;-88
2021/11/18 10:19:28;;;;;;;15.80;12.13;;;8.40;66.10;;;;;;4974759;28;20421;-88
2021/11/18 10:21:55;;;;;;;13.13;11.57;;;8.50;65.80;;;;;;4980225;28;20441;-88
2021/11/18 10:24:24;;;;;;;16.27;12.73;;;8.50;65.00;;;;;;4981476;28;20418;-89
2021/11/18 10:27:09;;;;;;;14.27;12.80;;;8.50;65.30;;;;;;4989172;28;20739;-88
2021/11/18 10:29:54;;;;;;;15.63;12.37;;;8.50;65.50;;;;;;4989981;28;20448;-90
2021/11/18 10:32:23;;;;;;;16.57;13.67;;;8.60;65.20;;;;;;4978958;28;20748;-88
2021/11/18 10:35:00;;;;;;;17.00;13.23;;;8.60;65.10;;;;;;4977948;28;20750;-88
2021/11/18 10:37:36;;;;;;;16.63;12.60;;;8.70;64.50;;;;;;4977845;28;20465;-89
2021/11/18 10:40:14;;;;;;;16.23;12.70;;;8.80;63.50;;;;;;4978932;28;20421;-87
2021/11/18 10:42:40;;;;;;;14.80;12.63;;;8.70;63.40;;;;;;4977078;28;20433;-89
2021/11/18 10:45:10;;;;;;;13.33;11.57;;;8.70;64.50;;;;;;4977303;28;20405;-89
2021/11/18 10:47:39;;;;;;;17.90;12.43;;;8.90;64.30;;;;;;4978821;28;20193;-89
2021/11/18 10:50:20;;;;;;;14.67;12.10;;;8.90;63.00;;;;;;4980398;28;20919;-89
2021/11/18 10:53:00;;;;;;;13.03;11.50;;;8.90;63.40;;;;;;4977185;28;20436;-88
2021/11/18 10:55:35;;;;;;;16.17;13.13;;;8.90;62.60;;;;;;4978655;28;20406;-89
2021/11/18 10:58:31;;;;;;;14.87;12.40;;;8.90;62.80;;;;;;4976660;28;20828;-89
2021/11/18 11:01:02;;;;;;;18.00;12.10;;;8.90;63.00;;;;;;4961560;28;20420;-89
2021/11/18 11:03:34;;;;;;;15.47;11.90;;;8.90;61.60;;;;;;4977713;28;20416;-89
2021/11/18 11:06:13;;;;;;;14.10;10.97;;;9.00;62.20;;;;;;4977074;28;20433;-90
2021/11/18 11:08:42;;;;;;;13.50;10.80;;;9.00;62.00;;;;;;4979128;28;20421;-90
2021/11/18 11:11:46;;;;;;;13.90;11.30;;;9.00;61.50;;;;;;4979129;28;20446;-88
2021/11/18 11:14:42;;;;;;;14.93;12.70;;;9.00;61.30;;;;;;4947906;28;20465;-89
2021/11/18 11:17:32;;;;;;;14.80;12.70;;;9.20;61.30;;;;;;4976669;28;20453;-89
2021/11/18 11:20:11;;;;;;;13.33;11.70;;;9.10;61.20;;;;;;4976660;28;20919;-89
2021/11/18 11:22:42;;;;;;;14.17;10.70;;;9.20;61.20;;;;;;4976861;28;20438;-89
2021/11/18 11:25:26;;;;;;;13.90;10.67;;;9.30;61.30;;;;;;4976340;28;20428;-89
2021/11/18 11:28:04;;;;;;;16.10;11.97;;;9.30;59.90;;;;;;4976399;28;21069;-89
2021/11/18 11:30:40;;;;;;;15.27;10.90;;;9.40;59.10;;;;;;4976097;28;20445;-90
2021/11/18 11:33:34;;;;;;;11.43;10.30;;;9.30;59.10;;;;;;4976739;28;20413;-89
2021/11/18 11:36:07;;;;;;;13.87;11.27;;;9.30;58.80;;;;;;4976812;28;20458;-90
2021/11/18 11:38:58;;;;;;;13.20;10.47;;;9.30;60.00;;;;;;4976774;28;20418;-89
2021/11/18 11:41:52;;;;;;;13.30;10.37;;;9.40;60.80;;;;;;4975996;28;20406;-90
2021/11/18 11:44:44;;;;;;;11.60;10.13;;;9.40;59.00;;;;;;4977853;28;20410;-87
2021/11/18 11:47:34;;;;;;;12.00;10.50;;;9.40;59.40;;;;;;4976905;28;20415;-88
2021/11/18 11:50:06;;;;;;;13.90;10.73;;;9.40;59.90;;;;;;4975835;28;20448;-89
2021/11/18 11:53:10;;;;;;;12.17;10.80;;;9.40;59.10;;;;;;4977215;28;20768;-89
2021/11/18 11:55:57;;;;;;;15.00;12.63;;;9.30;58.20;;;;;;4959038;28;20441;-87
2021/11/18 11:59:06;;;;;;;14.30;11.00;;;9.30;59.10;;;;;;4957008;29;20427;-89
2021/11/18 12:01:49;;;;;;;10.43;9.30;;;9.30;59.10;;;;;;4957502;28;20426;-89
2021/11/18 12:04:33;;;;;;;12.80;11.47;;;9.40;58.50;;;;;;4972023;28;20422;-83
2021/11/18 12:07:05;;;;;;;14.00;12.00;;;9.40;58.80;;;;;;4954362;29;20489;-84
2021/11/18 12:09:37;;;;;;;11.67;10.47;;;9.40;59.00;;;;;;4954891;29;20427;-84
2021/11/18 12:12:22;;;;;;;13.60;11.23;;;9.40;59.30;;;;;;4954402;29;20434;-84
2021/11/18 12:14:48;;;;;;;15.27;12.00;;;9.30;60.00;;;;;;4954622;29;20431;-83
2021/11/18 12:17:23;;;;;;;14.33;11.60;;;9.30;59.90;;;;;;4954367;29;20466;-84
2021/11/18 12:19:58;;;;;;;17.63;13.53;;;9.30;60.90;;;;;;4954255;29;20454;-83
2021/11/18 12:22:29;;;;;;;19.50;12.23;;;9.30;60.50;;;;;;4954742;28;20435;-83
2021/11/18 12:25:01;;;;;;;14.77;11.40;;;9.30;60.10;;;;;;4954392;29;20423;-83
2021/11/18 12:27:29;;;;;;;16.57;13.27;;;9.30;60.40;;;;;;4955130;29;20557;-85
2021/11/18 12:30:25;;;;;;;14.80;13.20;;;9.40;61.40;;;;;;4955167;29;20430;-84
2021/11/18 12:33:03;;;;;;;13.80;11.73;;;9.40;60.60;;;;;;4956830;29;20435;-89
2021/11/18 12:35:30;;;;;;;13.30;11.30;;;9.40;60.00;;;;;;4957713;28;20438;-89
2021/11/18 12:38:21;;;;;;;14.30;12.80;;;9.40;60.70;;;;;;4956522;29;20466;-90
2021/11/18 12:41:07;;;;;;;13.47;12.10;;;9.40;59.40;;;;;;4948340;29;20419;-88
2021/11/18 12:43:48;;;;;;;14.63;11.37;;;9.50;59.80;;;;;;4956019;28;20519;-88
2021/11/18 12:46:20;;;;;;;16.80;11.63;;;9.50;59.90;;;;;;4956092;29;20790;-90
2021/11/18 12:48:52;;;;;;;11.60;9.80;;;9.50;59.50;;;;;;4959948;29;20477;-88
2021/11/18 12:51:44;;;;;;;12.40;11.10;;;9.40;59.50;;;;;;4955857;29;20912;-88
2021/11/18 12:54:10;;;;;;;15.20;12.80;;;9.40;59.60;;;;;;4960235;28;20501;-87
2021/11/18 12:57:13;;;;;;;14.63;12.27;;;9.50;59.90;;;;;;4972814;28;20461;-88
2021/11/18 12:59:46;;;;;;;14.23;11.17;;;9.40;59.80;;;;;;4973801;28;20179;-86
2021/11/18 13:02:27;;;;;;;13.40;9.07;;;9.40;60.60;;;;;;4973879;28;20421;-89
2021/11/18 13:05:02;;;;;;;12.47;10.17;;;9.30;59.90;;;;;;4973907;28;20426;-88